COMO2: Grand River, Commerce, OK

Data processed at Fri Jun 05 2020 22:15


All information presented herein is the property of the government of the United States of America and may be revised or deleted at any time without prior notice.
Dissemination of this information without the expressed written consent of the Public Affairs Office, Tulsa District U.S. Army Corps of Engineers is strictly prohibited.
These data are gathered electronically and, as presented, have not undergone any form of quality control. These data are not guaranteed to be valid or correct.
Go to home page.
Go to station list.
Go to home page.

Upstream stations:

Downstream station:
Previous Day
Next Day
Current Day
    
SHEF ID:       COMO2     Neosho River nr Commerce, OK
STATION TYPE:  
Regulating: Stage =    15.00, Flow =    19655

               PRECIP     STAGE  STAGE(2)  RIV-FLOW  BAT-LOAD
                   in        ft        ft       cfs      volt
              Ccp-Rev   Ccp-Rev   Ccp-Rev   Ccp-Rev   Ccp-Rev
(US/Central)
06/05 00:00      0.00      7.64     10.23      7590     12.65
06/05 01:00      0.00      7.64     10.37      7590     12.65
06/05 02:00      0.00      7.64     18.18      7590     12.65
06/05 03:00      0.00      7.64     15.47      7590     12.57
06/05 04:00      0.00      7.61     14.14      7544     12.57
06/05 05:00      0.00      7.60     12.84      7528     12.57
06/05 06:00      0.00      7.59     12.40      7513     12.57
06/05 07:00      0.00      7.59     12.33      7513     12.57
06/05 08:00      0.00      7.58     12.25      7497     12.81
06/05 09:00      0.00      7.56     11.87      7466     13.21
06/05 10:00      0.00      7.55     11.35      7451     13.44
06/05 11:00      0.00      7.52     11.18      7405     13.37
06/05 12:00      0.00      7.53     10.92      7420     13.37
06/05 13:00      0.00      7.50     10.80      7374     13.05
06/05 14:00      0.00      7.51     10.65      7389     12.97
06/05 15:00      0.00      7.50     10.44      7374     12.89
06/05 16:00      0.00      7.44     10.26      7281     12.81
06/05 17:00      0.00      7.45     15.59      7297     12.73
06/05 18:00      0.00      7.43     14.17      7266     12.73
06/05 19:00      0.00      7.44     13.48      7281     12.73
06/05 20:00      0.00      7.42     12.88      7250     12.65
06/05 21:00      0.00      7.38     17.12      7189     12.65
06/05 22:00      ----      ----      ----      ----      ----
06/05 23:00      ----      ----      ----      ----      ----